Time;durP1;ratioP1;P1;durP2;ratioP2;P2;SDS_P1;SDS_P2;PMS_P1;PMS_P2;Temp;Humidity;BMP_temperature;BMP_pressure;BME280_temperature;BME280_humidity;BME280_pressure;Samples;Min_cycle;Max_cycle;Signal;HPM_P1;HPM_P2
2021/09/05 00:01:04;;;;;;;75.27;41.70;;;19.20;99.90;;;;;;4968855;28;20258;-79
2021/09/05 00:03:30;;;;;;;69.03;40.37;;;19.20;99.90;;;;;;4956200;28;20723;-79
2021/09/05 00:05:56;;;;;;;74.73;41.17;;;19.30;99.90;;;;;;4972148;28;20197;-79
2021/09/05 00:08:21;;;;;;;70.27;39.87;;;19.30;99.90;;;;;;4960151;28;20247;-79
2021/09/05 00:10:47;;;;;;;75.93;40.50;;;19.10;99.90;;;;;;4969984;28;20213;-79
2021/09/05 00:13:13;;;;;;;74.10;41.87;;;18.90;99.90;;;;;;4973157;28;20273;-79
2021/09/05 00:15:39;;;;;;;83.67;44.20;;;18.80;99.90;;;;;;4942309;28;20198;-80
2021/09/05 00:18:05;;;;;;;78.43;42.77;;;18.90;99.90;;;;;;4973737;28;20183;-79
2021/09/05 00:20:31;;;;;;;88.77;45.80;;;18.90;99.90;;;;;;4972768;28;20245;-79
2021/09/05 00:22:57;;;;;;;93.67;46.97;;;18.90;99.90;;;;;;4956977;28;20538;-79
2021/09/05 00:25:23;;;;;;;90.00;46.03;;;19.00;99.90;;;;;;4943994;28;20194;-79
2021/09/05 00:27:48;;;;;;;82.87;45.47;;;18.90;99.90;;;;;;4959400;28;20184;-79
2021/09/05 00:30:14;;;;;;;84.63;44.67;;;19.00;99.90;;;;;;4958643;28;20211;-79
2021/09/05 00:32:40;;;;;;;86.67;46.30;;;19.00;99.90;;;;;;4972193;28;20206;-79
2021/09/05 00:35:06;;;;;;;90.63;47.70;;;19.00;99.90;;;;;;4976118;28;20202;-80
2021/09/05 00:37:33;;;;;;;90.97;47.47;;;19.00;99.90;;;;;;4972678;28;20722;-79
2021/09/05 00:39:58;;;;;;;88.50;45.80;;;19.10;99.90;;;;;;4956091;28;20195;-79
2021/09/05 00:42:26;;;;;;;86.63;46.53;;;19.10;99.90;;;;;;4956120;28;20184;-79
2021/09/05 00:44:53;;;;;;;83.73;44.70;;;19.10;99.90;;;;;;4974346;28;20271;-79
2021/09/05 00:47:19;;;;;;;88.03;45.70;;;19.10;99.90;;;;;;4974060;28;20211;-80
2021/09/05 00:49:45;;;;;;;84.70;46.30;;;19.20;99.90;;;;;;4960632;28;20253;-80
2021/09/05 00:52:12;;;;;;;83.37;44.83;;;19.20;99.90;;;;;;4972984;28;20237;-81
2021/09/05 00:54:42;;;;;;;81.73;42.73;;;19.20;99.90;;;;;;4975243;28;20232;-80
2021/09/05 00:57:16;;;;;;;84.10;45.30;;;19.20;99.90;;;;;;4956594;28;20196;-79
2021/09/05 00:59:48;;;;;;;90.40;47.90;;;19.20;99.90;;;;;;4974000;28;20195;-80
2021/09/05 01:02:14;;;;;;;84.93;45.47;;;19.20;99.90;;;;;;4958426;28;20248;-79
2021/09/05 01:04:40;;;;;;;91.37;47.37;;;19.20;99.90;;;;;;4958033;28;20653;-80
2021/09/05 01:07:08;;;;;;;77.27;42.83;;;19.20;99.90;;;;;;4976109;28;20190;-80
2021/09/05 01:09:35;;;;;;;90.67;48.63;;;19.20;99.90;;;;;;4973857;28;20195;-80
2021/09/05 01:12:01;;;;;;;83.63;46.30;;;19.00;99.90;;;;;;4956618;28;20673;-79
2021/09/05 01:14:27;;;;;;;92.70;47.07;;;19.00;99.90;;;;;;4973095;28;20709;-80
2021/09/05 01:16:54;;;;;;;90.47;45.87;;;19.00;99.90;;;;;;4974163;28;20296;-79
2021/09/05 01:19:34;;;;;;;87.60;47.00;;;19.00;99.90;;;;;;4972393;28;20689;-80
2021/09/05 01:22:19;;;;;;;91.30;45.20;;;19.00;99.90;;;;;;4975565;28;20285;-79
2021/09/05 01:25:03;;;;;;;86.80;45.67;;;18.90;99.90;;;;;;4972657;28;20210;-79
2021/09/05 01:27:48;;;;;;;83.63;43.70;;;18.80;99.90;;;;;;4974141;28;20186;-79
2021/09/05 01:30:32;;;;;;;92.33;47.90;;;18.70;99.90;;;;;;4972546;28;20326;-79
2021/09/05 01:33:18;;;;;;;83.50;44.00;;;18.80;99.90;;;;;;4955842;28;20690;-81
2021/09/05 01:36:03;;;;;;;92.90;45.87;;;18.90;99.90;;;;;;4973180;28;20382;-79
2021/09/05 01:38:58;;;;;;;93.70;47.10;;;18.80;99.90;;;;;;4969118;28;20188;-79
2021/09/05 01:41:59;;;;;;;88.80;46.93;;;18.90;99.90;;;;;;4952837;28;20187;-79
2021/09/05 01:44:43;;;;;;;98.17;49.80;;;18.80;99.90;;;;;;4971735;28;20244;-80
2021/09/05 01:47:29;;;;;;;101.53;49.13;;;18.90;99.90;;;;;;4971215;28;20241;-79
2021/09/05 01:50:21;;;;;;;94.00;47.53;;;18.80;99.90;;;;;;4948607;28;20716;-79
2021/09/05 01:53:25;;;;;;;91.00;45.20;;;18.80;99.90;;;;;;4958164;28;20262;-79
2021/09/05 01:56:23;;;;;;;86.00;45.60;;;18.70;99.90;;;;;;4973308;28;20659;-79
2021/09/05 01:59:13;;;;;;;83.70;43.23;;;18.70;99.90;;;;;;4972793;28;20535;-79
2021/09/05 02:02:02;;;;;;;83.67;44.80;;;18.70;99.90;;;;;;4972399;28;20226;-80
2021/09/05 02:04:53;;;;;;;94.97;46.93;;;18.70;99.90;;;;;;4956497;28;20214;-79
2021/09/05 02:07:45;;;;;;;89.40;46.70;;;18.80;99.90;;;;;;4973229;28;20194;-80
2021/09/05 02:10:30;;;;;;;93.30;45.63;;;18.80;99.90;;;;;;4972115;28;20209;-80
2021/09/05 02:13:23;;;;;;;91.47;46.40;;;18.80;99.90;;;;;;4972677;28;20188;-80
2021/09/05 02:16:17;;;;;;;100.00;48.37;;;18.80;99.90;;;;;;4969213;28;20598;-80
2021/09/05 02:18:52;;;;;;;92.83;47.57;;;18.80;99.90;;;;;;4973651;28;20189;-80
2021/09/05 02:21:37;;;;;;;92.23;46.77;;;18.90;99.90;;;;;;4973144;28;20229;-80
2021/09/05 02:24:23;;;;;;;84.77;43.47;;;18.90;99.90;;;;;;4973763;28;20207;-80
2021/09/05 02:27:27;;;;;;;92.33;46.90;;;18.80;99.90;;;;;;4971330;28;20285;-80
2021/09/05 02:30:13;;;;;;;86.90;45.60;;;18.90;99.90;;;;;;4957588;28;20240;-80
2021/09/05 02:32:56;;;;;;;90.33;45.93;;;18.80;99.90;;;;;;4972814;28;20206;-80
2021/09/05 02:35:45;;;;;;;88.30;45.13;;;18.70;99.90;;;;;;4954111;28;20192;-80
2021/09/05 02:38:37;;;;;;;83.83;44.40;;;18.60;99.90;;;;;;4952225;28;20609;-80
2021/09/05 02:41:39;;;;;;;84.23;43.30;;;18.60;99.90;;;;;;4955957;28;20645;-80
2021/09/05 02:44:23;;;;;;;81.30;41.60;;;18.50;99.90;;;;;;4969694;28;20312;-80
2021/09/05 02:47:10;;;;;;;74.97;40.93;;;18.40;99.90;;;;;;4973687;28;20761;-80
2021/09/05 02:49:55;;;;;;;92.23;45.90;;;18.30;99.90;;;;;;4971753;28;20301;-80
2021/09/05 02:52:43;;;;;;;87.33;44.83;;;18.30;99.90;;;;;;4943276;28;20215;-80
2021/09/05 02:55:26;;;;;;;94.13;46.13;;;18.40;99.90;;;;;;4953225;28;20195;-80
2021/09/05 02:58:23;;;;;;;88.40;45.80;;;18.40;99.90;;;;;;4972183;28;20716;-80
2021/09/05 03:01:02;;;;;;;89.17;43.63;;;18.50;99.90;;;;;;4956704;28;20190;-80
2021/09/05 03:03:47;;;;;;;88.87;45.67;;;18.60;99.90;;;;;;4970673;28;20183;-80
2021/09/05 03:06:36;;;;;;;91.97;45.23;;;18.50;99.90;;;;;;4965959;28;20198;-80
2021/09/05 03:09:31;;;;;;;83.00;43.63;;;18.50;99.90;;;;;;4933377;28;20213;-80
2021/09/05 03:12:24;;;;;;;88.77;44.60;;;18.40;99.90;;;;;;4971378;28;20676;-80
2021/09/05 03:15:16;;;;;;;86.37;42.40;;;18.40;99.90;;;;;;4970206;28;20187;-79
2021/09/05 03:18:00;;;;;;;85.53;43.57;;;18.30;99.90;;;;;;4971255;28;20206;-80
2021/09/05 03:20:46;;;;;;;85.17;42.80;;;18.20;99.90;;;;;;4946088;28;20598;-80
2021/09/05 03:23:30;;;;;;;101.33;47.37;;;18.10;99.90;;;;;;4971737;28;20622;-80
2021/09/05 03:26:25;;;;;;;92.63;45.97;;;18.10;99.90;;;;;;4921320;28;20191;-81
2021/09/05 03:29:10;;;;;;;81.87;43.00;;;18.10;99.90;;;;;;4972452;28;20215;-80
2021/09/05 03:31:58;;;;;;;89.57;45.77;;;18.00;99.90;;;;;;4970758;28;20568;-81
2021/09/05 03:35:00;;;;;;;96.70;47.23;;;17.90;99.90;;;;;;4971947;28;20194;-80
2021/09/05 03:37:54;;;;;;;102.20;47.83;;;18.00;99.90;;;;;;4970818;28;20191;-83
2021/09/05 03:40:52;;;;;;;106.07;48.67;;;18.00;99.90;;;;;;4937292;28;20264;-81
2021/09/05 03:43:47;;;;;;;102.10;46.87;;;18.10;99.90;;;;;;4972684;28;20198;-81
2021/09/05 03:46:35;;;;;;;90.37;43.77;;;18.00;99.90;;;;;;4955105;28;20206;-80
2021/09/05 03:49:18;;;;;;;97.73;45.77;;;17.90;99.90;;;;;;4954766;28;20209;-81
2021/09/05 03:51:46;;;;;;;89.77;43.43;;;17.80;99.90;;;;;;4954255;28;20190;-81
2021/09/05 03:54:15;;;;;;;89.07;43.83;;;17.70;99.90;;;;;;4955392;28;20218;-81
2021/09/05 03:56:42;;;;;;;92.57;44.03;;;17.70;99.90;;;;;;4974016;28;20175;-81
2021/09/05 03:59:08;;;;;;;88.60;44.40;;;17.70;99.90;;;;;;4970944;28;20248;-81
2021/09/05 04:01:35;;;;;;;99.30;46.03;;;17.60;99.90;;;;;;4955499;28;20725;-80
2021/09/05 04:04:24;;;;;;;102.23;47.80;;;17.50;99.90;;;;;;4969040;28;20197;-81
2021/09/05 04:06:59;;;;;;;92.63;45.17;;;17.40;99.90;;;;;;4969561;28;20681;-81
2021/09/05 04:12:11;;;;;;;112.57;50.47;;;17.10;99.90;;;;;;4969870;28;20186;-82
2021/09/05 04:14:37;;;;;;;107.63;48.63;;;17.10;99.90;;;;;;4971943;28;20198;-82
2021/09/05 04:17:02;;;;;;;111.87;51.10;;;17.10;99.90;;;;;;4952581;28;20254;-81
2021/09/05 04:19:28;;;;;;;101.87;47.47;;;17.20;99.90;;;;;;4970162;28;20198;-81
2021/09/05 04:21:54;;;;;;;106.80;47.93;;;17.30;99.90;;;;;;4971963;28;20202;-81
2021/09/05 04:24:20;;;;;;;103.07;48.20;;;17.40;99.90;;;;;;4955755;28;20582;-81
2021/09/05 04:26:45;;;;;;;108.60;47.60;;;17.20;99.90;;;;;;4971797;28;20285;-81
2021/09/05 04:29:11;;;;;;;110.20;47.73;;;17.00;99.90;;;;;;4956385;28;20234;-81
2021/09/05 04:31:37;;;;;;;98.93;46.90;;;16.90;99.90;;;;;;4973563;28;20266;-81
2021/09/05 04:34:03;;;;;;;112.60;49.60;;;16.80;99.90;;;;;;4955529;28;20203;-81
2021/09/05 04:36:28;;;;;;;121.33;51.80;;;16.90;99.90;;;;;;4971086;28;20191;-81
2021/09/05 04:38:54;;;;;;;110.57;50.07;;;16.90;99.90;;;;;;4953793;28;20279;-81
2021/09/05 04:41:20;;;;;;;114.70;48.87;;;16.90;99.90;;;;;;4970876;28;20180;-81
2021/09/05 04:43:45;;;;;;;117.63;49.77;;;17.00;99.90;;;;;;4970497;28;20362;-81
2021/09/05 04:46:11;;;;;;;114.63;50.63;;;17.10;99.90;;;;;;4974462;28;20291;-81
2021/09/05 04:48:37;;;;;;;120.80;51.30;;;17.20;99.90;;;;;;4971919;28;20729;-81
2021/09/05 04:51:02;;;;;;;115.70;51.23;;;17.20;99.90;;;;;;4957327;28;20708;-80
2021/09/05 04:53:28;;;;;;;111.67;47.97;;;17.30;99.90;;;;;;4978382;28;20709;-81
2021/09/05 04:55:54;;;;;;;101.33;47.57;;;17.30;99.90;;;;;;4973885;28;20195;-81
2021/09/05 04:58:20;;;;;;;106.53;48.40;;;17.10;99.90;;;;;;4973469;28;20192;-81
2021/09/05 05:00:45;;;;;;;100.87;46.23;;;17.10;99.90;;;;;;4952520;28;20197;-81
2021/09/05 05:03:11;;;;;;;101.17;45.97;;;17.10;99.90;;;;;;4957768;28;20276;-81
2021/09/05 05:05:38;;;;;;;109.17;48.80;;;17.10;99.90;;;;;;4956496;28;20724;-81
2021/09/05 05:08:04;;;;;;;113.30;49.50;;;17.00;99.90;;;;;;4972980;28;20179;-81
2021/09/05 05:10:29;;;;;;;113.10;50.13;;;17.10;99.90;;;;;;4974629;28;20202;-80
2021/09/05 05:12:55;;;;;;;127.07;52.93;;;17.20;99.90;;;;;;4958097;28;20218;-81
2021/09/05 05:15:21;;;;;;;112.90;49.60;;;17.30;99.90;;;;;;4957934;28;20185;-81
2021/09/05 05:17:47;;;;;;;121.50;49.67;;;17.30;99.90;;;;;;4956992;28;20598;-80
2021/09/05 05:20:12;;;;;;;100.53;47.40;;;17.30;99.90;;;;;;4974385;28;20198;-80
2021/09/05 05:22:40;;;;;;;115.03;49.87;;;17.30;99.90;;;;;;4974797;28;20289;-81
2021/09/05 05:25:06;;;;;;;109.20;46.93;;;17.30;99.90;;;;;;4973196;28;20195;-80
2021/09/05 05:27:32;;;;;;;105.20;47.20;;;17.30;99.90;;;;;;4972389;28;20589;-81
2021/09/05 05:29:58;;;;;;;103.17;47.80;;;17.40;99.90;;;;;;4956900;28;20226;-81
2021/09/05 05:32:24;;;;;;;102.30;46.83;;;17.50;99.90;;;;;;4972919;28;20191;-81
2021/09/05 05:34:50;;;;;;;101.63;46.60;;;17.70;99.90;;;;;;4973069;28;20183;-80
2021/09/05 05:37:15;;;;;;;101.27;47.27;;;17.90;99.90;;;;;;4957863;28;20187;-81
2021/09/05 05:39:41;;;;;;;96.80;47.03;;;18.20;99.90;;;;;;4975727;28;20204;-81
2021/09/05 05:42:07;;;;;;;87.87;45.03;;;18.40;99.90;;;;;;4973564;28;20265;-80
2021/09/05 05:44:32;;;;;;;94.53;46.70;;;18.50;99.90;;;;;;4975536;28;20521;-80
2021/09/05 05:46:58;;;;;;;87.20;43.00;;;18.70;99.90;;;;;;4972296;28;20220;-80
2021/09/05 05:49:24;;;;;;;95.80;45.77;;;18.70;99.90;;;;;;4941775;28;20214;-80
2021/09/05 05:51:49;;;;;;;95.90;46.43;;;18.70;99.90;;;;;;4978156;28;20183;-81
2021/09/05 05:54:15;;;;;;;89.37;45.47;;;18.70;99.90;;;;;;4970969;28;20262;-81
2021/09/05 05:56:43;;;;;;;96.97;45.20;;;18.60;99.90;;;;;;4973533;28;21622;-81
2021/09/05 05:59:09;;;;;;;95.10;46.43;;;18.50;99.90;;;;;;4973906;28;20190;-80
2021/09/05 06:01:37;;;;;;;96.13;46.83;;;18.50;99.90;;;;;;4956692;28;20688;-81
2021/09/05 06:04:03;;;;;;;100.47;46.67;;;18.60;99.90;;;;;;4957166;28;20594;-81
2021/09/05 06:06:29;;;;;;;97.00;46.47;;;18.60;99.90;;;;;;4940738;28;20183;-80
2021/09/05 06:08:55;;;;;;;94.00;46.27;;;18.60;99.90;;;;;;4973336;28;20238;-81
2021/09/05 06:11:21;;;;;;;85.73;43.53;;;18.70;99.90;;;;;;4955915;28;20285;-81
2021/09/05 06:13:47;;;;;;;83.90;41.67;;;18.80;99.90;;;;;;4973346;28;20260;-81
2021/09/05 06:16:12;;;;;;;80.60;41.87;;;18.80;99.90;;;;;;4973035;28;20528;-81
2021/09/05 06:18:38;;;;;;;79.97;40.87;;;18.90;99.90;;;;;;4956410;28;20187;-79
2021/09/05 06:21:04;;;;;;;77.37;41.70;;;19.00;99.90;;;;;;4971082;28;20702;-80
2021/09/05 06:23:30;;;;;;;78.83;41.20;;;19.00;99.90;;;;;;4971592;28;20243;-80
2021/09/05 06:25:55;;;;;;;83.90;43.53;;;19.20;99.90;;;;;;4971724;28;21321;-80
2021/09/05 06:28:21;;;;;;;81.47;41.83;;;19.50;99.90;;;;;;4973703;28;20661;-80
2021/09/05 06:30:47;;;;;;;81.97;42.60;;;19.80;99.90;;;;;;4971615;28;20189;-80
2021/09/05 06:33:13;;;;;;;79.83;42.43;;;19.90;99.90;;;;;;4971559;28;20191;-80
2021/09/05 06:35:38;;;;;;;75.57;41.80;;;20.00;99.90;;;;;;4962150;28;20194;-81
2021/09/05 06:38:04;;;;;;;77.93;40.93;;;20.20;99.90;;;;;;4971592;28;20290;-81
2021/09/05 06:40:31;;;;;;;77.90;41.73;;;20.30;99.90;;;;;;4973693;28;20193;-80
2021/09/05 06:42:56;;;;;;;77.97;41.23;;;20.20;99.90;;;;;;4971998;28;20194;-81
2021/09/05 06:45:22;;;;;;;78.77;42.03;;;20.40;99.90;;;;;;4973997;28;20223;-80
2021/09/05 06:47:48;;;;;;;76.37;42.93;;;20.70;99.90;;;;;;4970760;28;20646;-80
2021/09/05 06:50:13;;;;;;;73.97;42.50;;;21.80;99.90;;;;;;4954535;28;20209;-81
2021/09/05 06:52:39;;;;;;;72.93;40.10;;;22.00;99.90;;;;;;4954539;28;20230;-81
2021/09/05 06:55:05;;;;;;;74.13;41.67;;;21.80;99.90;;;;;;4971187;28;20707;-81
2021/09/05 06:57:31;;;;;;;78.00;41.70;;;21.60;99.90;;;;;;4974002;28;20189;-81
2021/09/05 06:59:57;;;;;;;81.17;42.67;;;21.30;99.90;;;;;;4971757;28;20194;-80
2021/09/05 07:02:22;;;;;;;79.77;41.90;;;21.10;99.90;;;;;;4972584;28;20203;-81
2021/09/05 07:04:48;;;;;;;76.70;42.80;;;20.80;99.90;;;;;;4956142;28;20188;-81
2021/09/05 07:07:14;;;;;;;76.63;42.47;;;20.70;99.90;;;;;;4960956;28;20204;-80
2021/09/05 07:09:40;;;;;;;70.13;40.40;;;21.20;99.90;;;;;;4980407;28;20566;-81
2021/09/05 07:12:06;;;;;;;66.47;38.73;;;23.00;99.90;;;;;;4972288;28;20186;-80
2021/09/05 07:14:32;;;;;;;66.23;39.53;;;25.30;99.90;;;;;;4963123;28;20245;-81
2021/09/05 07:16:57;;;;;;;62.23;38.50;;;27.10;99.90;;;;;;4973237;28;20191;-81
2021/09/05 07:19:23;;;;;;;60.28;36.50;;;27.40;99.90;;;;;;4954971;28;20207;-81
2021/09/05 07:21:49;;;;;;;60.95;37.95;;;28.50;99.90;;;;;;4972968;28;20194;-80
2021/09/05 07:24:14;;;;;;;59.00;35.50;;;28.70;99.90;;;;;;4971036;28;20202;-80
2021/09/05 07:26:41;;;;;;;55.03;35.80;;;29.50;99.90;;;;;;4955158;28;20175;-81
2021/09/05 07:29:07;;;;;;;58.13;35.92;;;30.20;99.90;;;;;;4954515;28;20359;-81
2021/09/05 07:31:32;;;;;;;54.92;36.97;;;29.90;99.90;;;;;;4972025;28;20545;-81
2021/09/05 07:33:59;;;;;;;50.90;34.00;;;30.20;99.90;;;;;;4970346;28;20198;-81
2021/09/05 07:36:24;;;;;;;54.45;36.15;;;31.10;99.90;;;;;;4954442;28;20210;-81
2021/09/05 07:38:51;;;;;;;50.83;33.90;;;31.90;99.90;;;;;;4953640;28;20227;-81
2021/09/05 07:41:17;;;;;;;48.45;33.67;;;32.70;99.90;;;;;;4970191;28;20179;-81
2021/09/05 07:43:43;;;;;;;53.25;34.47;;;33.50;99.90;;;;;;4971563;28;20638;-80
2021/09/05 07:46:09;;;;;;;50.85;33.63;;;33.90;99.90;;;;;;4955203;28;20195;-81
2021/09/05 07:48:35;;;;;;;46.97;32.97;;;34.50;99.70;;;;;;4973056;28;20567;-81
2021/09/05 07:51:00;;;;;;;47.60;32.90;;;35.40;97.70;;;;;;4971991;28;20214;-81
2021/09/05 07:53:26;;;;;;;45.22;32.25;;;35.70;95.00;;;;;;4969246;28;20305;-81
2021/09/05 07:55:52;;;;;;;45.33;32.08;;;36.50;93.20;;;;;;4970600;28;20214;-79
2021/09/05 07:58:17;;;;;;;41.20;30.67;;;36.90;91.30;;;;;;4969692;28;20190;-79
2021/09/05 08:00:43;;;;;;;41.25;30.65;;;37.30;90.00;;;;;;4975781;28;20660;-81
2021/09/05 08:03:09;;;;;;;42.25;31.25;;;37.40;87.60;;;;;;4971814;28;20193;-81
2021/09/05 08:05:35;;;;;;;42.50;31.55;;;38.00;84.70;;;;;;4970440;28;20558;-81
2021/09/05 08:08:01;;;;;;;40.15;29.98;;;38.40;81.70;;;;;;4953273;28;20187;-81
2021/09/05 08:10:27;;;;;;;41.70;30.23;;;38.90;79.10;;;;;;4955559;28;20587;-81
2021/09/05 08:12:52;;;;;;;40.92;30.80;;;38.80;77.10;;;;;;4970545;28;20265;-81
2021/09/05 08:15:18;;;;;;;42.75;31.52;;;38.80;76.90;;;;;;4937662;28;20283;-81
2021/09/05 08:17:44;;;;;;;42.67;32.17;;;38.80;74.90;;;;;;4954796;28;20191;-81
2021/09/05 08:20:10;;;;;;;38.42;29.58;;;38.70;75.60;;;;;;4968629;28;20571;-79
2021/09/05 08:22:37;;;;;;;39.17;30.48;;;39.20;74.30;;;;;;4954309;28;20207;-82
2021/09/05 08:25:03;;;;;;;41.67;29.27;;;39.40;72.20;;;;;;4970858;28;21418;-80
2021/09/05 08:27:29;;;;;;;39.05;29.20;;;39.60;72.70;;;;;;4974011;28;20190;-80
2021/09/05 08:29:57;;;;;;;38.42;29.02;;;39.40;72.90;;;;;;4983323;28;20427;-80
2021/09/05 08:32:23;;;;;;;38.22;28.90;;;38.80;71.50;;;;;;4975940;28;20179;-80
2021/09/05 08:34:49;;;;;;;37.22;26.75;;;39.10;71.40;;;;;;4957909;28;20179;-80
2021/09/05 08:37:15;;;;;;;33.17;25.67;;;39.20;69.90;;;;;;4976032;28;20269;-81
2021/09/05 08:39:41;;;;;;;34.95;26.73;;;39.10;69.90;;;;;;4975023;28;20248;-80
2021/09/05 08:42:07;;;;;;;35.28;26.48;;;39.30;70.00;;;;;;4974788;28;20194;-80
2021/09/05 08:44:32;;;;;;;35.60;28.20;;;39.50;68.50;;;;;;4974250;28;20339;-80
2021/09/05 08:46:59;;;;;;;34.65;26.10;;;39.50;68.30;;;;;;4957077;28;20301;-81
2021/09/05 08:49:27;;;;;;;31.85;24.85;;;38.60;69.50;;;;;;4957441;28;20206;-80
2021/09/05 08:51:54;;;;;;;37.17;27.85;;;38.20;70.60;;;;;;4958174;28;20811;-80
2021/09/05 08:54:22;;;;;;;32.78;23.73;;;37.90;70.10;;;;;;4955589;28;20619;-81
2021/09/05 08:56:49;;;;;;;33.50;25.63;;;38.00;70.70;;;;;;4974507;28;20237;-81
2021/09/05 08:59:15;;;;;;;33.33;25.23;;;37.90;71.10;;;;;;4956780;28;20188;-81
2021/09/05 09:01:54;;;;;;;31.30;23.15;;;37.20;72.30;;;;;;4974681;28;20210;-81
2021/09/05 09:04:21;;;;;;;32.55;23.00;;;37.30;73.10;;;;;;4972667;28;20602;-81
2021/09/05 09:06:47;;;;;;;25.80;20.70;;;37.70;70.60;;;;;;4973724;28;20183;-80
2021/09/05 09:09:13;;;;;;;24.95;18.65;;;37.90;69.70;;;;;;4957281;28;20203;-81
2021/09/05 09:11:53;;;;;;;30.38;21.52;;;37.80;69.10;;;;;;4973201;28;20606;-81
2021/09/05 09:14:21;;;;;;;25.98;18.95;;;38.40;70.20;;;;;;4972931;28;20191;-81
2021/09/05 09:16:47;;;;;;;20.65;16.70;;;37.60;71.60;;;;;;4971885;28;20250;-81
2021/09/05 09:19:24;;;;;;;22.52;16.42;;;37.40;68.00;;;;;;4972842;28;20793;-80
2021/09/05 09:21:51;;;;;;;24.13;18.73;;;37.60;68.60;;;;;;4974147;28;20266;-81
2021/09/05 09:24:21;;;;;;;22.25;16.98;;;36.90;70.30;;;;;;4973053;28;20198;-82
2021/09/05 09:27:16;;;;;;;21.23;15.65;;;34.90;71.70;;;;;;4975034;28;20202;-81
2021/09/05 09:29:43;;;;;;;21.27;13.35;;;33.40;75.80;;;;;;4928055;28;20280;-81
2021/09/05 09:32:17;;;;;;;20.98;14.23;;;32.20;75.90;;;;;;4973971;28;20637;-80
2021/09/05 09:34:49;;;;;;;21.10;14.63;;;30.90;79.40;;;;;;4968388;28;20187;-80
2021/09/05 09:37:17;;;;;;;20.73;15.10;;;30.50;83.50;;;;;;4974312;28;20180;-80
2021/09/05 09:39:51;;;;;;;18.92;14.60;;;30.20;84.20;;;;;;4973280;28;20253;-81
2021/09/05 09:42:40;;;;;;;19.90;14.18;;;29.90;84.30;;;;;;4941593;28;20225;-80
2021/09/05 09:45:11;;;;;;;22.35;14.10;;;29.50;86.90;;;;;;4958831;28;20218;-81
2021/09/05 09:47:48;;;;;;;20.60;14.18;;;29.40;86.90;;;;;;4975311;28;20179;-81
2021/09/05 09:50:17;;;;;;;21.98;14.10;;;30.30;87.80;;;;;;4973061;28;20677;-82
2021/09/05 09:52:46;;;;;;;19.55;12.80;;;31.20;87.00;;;;;;4973109;28;20207;-80
2021/09/05 09:55:13;;;;;;;17.85;12.55;;;32.50;84.80;;;;;;4973256;28;20653;-80
2021/09/05 09:57:39;;;;;;;17.02;12.25;;;34.50;81.60;;;;;;4971957;28;20195;-81
2021/09/05 10:00:06;;;;;;;15.43;10.85;;;36.10;77.00;;;;;;4974381;28;20187;-81
2021/09/05 10:02:42;;;;;;;18.40;12.18;;;36.80;74.40;;;;;;4971603;28;20215;-81
2021/09/05 10:05:11;;;;;;;14.63;10.52;;;36.60;72.00;;;;;;4955439;28;20192;-80
2021/09/05 10:07:37;;;;;;;15.63;11.13;;;37.00;72.20;;;;;;4970733;28;20187;-80
2021/09/05 10:10:05;;;;;;;15.20;10.50;;;37.20;68.80;;;;;;4955016;28;20200;-81
2021/09/05 10:12:33;;;;;;;13.57;10.32;;;36.80;68.60;;;;;;4972156;28;20187;-81
2021/09/05 10:14:59;;;;;;;14.38;9.73;;;36.40;67.10;;;;;;4955752;28;20175;-81
2021/09/05 10:17:25;;;;;;;13.23;9.75;;;36.20;68.20;;;;;;4968687;28;20653;-81
2021/09/05 10:19:52;;;;;;;14.63;10.35;;;36.70;67.10;;;;;;4973036;28;20293;-81
2021/09/05 10:22:20;;;;;;;15.40;10.15;;;36.60;66.00;;;;;;4971015;28;20275;-81
2021/09/05 10:24:53;;;;;;;14.10;10.07;;;35.80;70.40;;;;;;4956143;28;20645;-81
2021/09/05 10:27:34;;;;;;;12.45;9.40;;;34.40;70.70;;;;;;4968639;28;20191;-80
2021/09/05 10:30:09;;;;;;;15.48;10.77;;;33.30;73.90;;;;;;4973518;28;20265;-80
2021/09/05 10:33:07;;;;;;;16.63;10.65;;;32.20;74.90;;;;;;4971332;28;20558;-81
2021/09/05 10:36:08;;;;;;;15.15;9.95;;;31.30;76.50;;;;;;4949308;28;20673;-81
2021/09/05 10:38:35;;;;;;;15.93;9.70;;;30.70;77.20;;;;;;4932729;28;20191;-81
2021/09/05 10:41:12;;;;;;;14.05;9.52;;;30.30;78.30;;;;;;4970065;28;20262;-80
2021/09/05 10:43:47;;;;;;;16.10;9.75;;;30.00;83.00;;;;;;4972530;28;20557;-81
2021/09/05 10:46:27;;;;;;;14.73;10.50;;;29.70;82.60;;;;;;4970124;28;20185;-80
2021/09/05 10:48:58;;;;;;;15.95;10.30;;;29.30;83.80;;;;;;4953538;28;20693;-80
2021/09/05 10:51:26;;;;;;;16.90;9.63;;;29.00;83.90;;;;;;4953202;28;20187;-80
2021/09/05 10:53:59;;;;;;;16.65;9.73;;;28.60;86.10;;;;;;4973156;28;20233;-80
2021/09/05 10:56:31;;;;;;;15.32;9.85;;;28.10;85.10;;;;;;4968979;28;20270;-81
2021/09/05 10:58:58;;;;;;;14.75;9.82;;;27.80;89.50;;;;;;4970356;28;20203;-80
2021/09/05 11:01:35;;;;;;;16.90;10.38;;;27.60;89.90;;;;;;4972660;28;20222;-81
2021/09/05 11:04:10;;;;;;;15.07;9.80;;;27.60;90.10;;;;;;4968676;28;20183;-80
2021/09/05 11:06:38;;;;;;;18.77;11.68;;;28.00;90.50;;;;;;4955665;28;20221;-79
2021/09/05 11:09:20;;;;;;;17.35;10.70;;;28.30;91.00;;;;;;4968860;28;20278;-80
2021/09/05 11:11:59;;;;;;;17.60;10.90;;;28.50;91.90;;;;;;4972105;28;20555;-80
2021/09/05 11:14:35;;;;;;;15.85;10.45;;;28.50;91.70;;;;;;4971951;28;20198;-81
2021/09/05 11:17:08;;;;;;;16.08;10.20;;;28.50;93.00;;;;;;4970662;28;20645;-80
2021/09/05 11:19:35;;;;;;;16.42;10.05;;;28.40;92.00;;;;;;4969184;28;20215;-80
2021/09/05 11:22:06;;;;;;;13.45;9.68;;;28.30;93.30;;;;;;4954865;28;20187;-80
2021/09/05 11:24:33;;;;;;;15.05;10.10;;;28.20;93.60;;;;;;4972184;28;20187;-80
2021/09/05 11:27:05;;;;;;;18.52;10.63;;;28.00;92.80;;;;;;4952631;28;20270;-80
2021/09/05 11:29:32;;;;;;;13.40;9.30;;;28.00;92.10;;;;;;4970152;28;20204;-80
2021/09/05 11:32:06;;;;;;;14.65;9.35;;;28.00;93.10;;;;;;4972316;28;20190;-80
2021/09/05 11:34:33;;;;;;;14.77;9.52;;;27.90;93.60;;;;;;4970471;28;20274;-79
2021/09/05 11:36:59;;;;;;;14.30;9.23;;;27.80;92.20;;;;;;4954748;28;20235;-80
2021/09/05 11:39:26;;;;;;;13.65;9.27;;;27.90;92.70;;;;;;4953673;28;21121;-79
2021/09/05 11:41:56;;;;;;;17.42;11.30;;;27.90;93.80;;;;;;4968651;28;20237;-80
2021/09/05 11:44:30;;;;;;;16.88;11.82;;;27.90;97.20;;;;;;4966131;28;20195;-79
2021/09/05 11:47:11;;;;;;;18.20;11.82;;;27.80;97.40;;;;;;4969317;28;20182;-80
2021/09/05 11:49:51;;;;;;;14.98;10.52;;;27.50;97.10;;;;;;4967259;28;20214;-81
2021/09/05 11:52:19;;;;;;;16.05;10.77;;;27.20;98.10;;;;;;4970148;28;20183;-81
2021/09/05 11:54:57;;;;;;;13.95;9.48;;;27.40;98.40;;;;;;4968258;28;20202;-80
2021/09/05 11:57:24;;;;;;;15.15;9.55;;;27.70;98.60;;;;;;4970142;28;20180;-81
2021/09/05 11:59:55;;;;;;;14.27;9.73;;;28.10;96.10;;;;;;4968304;28;20193;-80
2021/09/05 12:02:38;;;;;;;16.80;9.55;;;28.20;96.00;;;;;;4971338;28;20211;-80
2021/09/05 12:05:10;;;;;;;15.43;9.95;;;28.50;95.50;;;;;;4974111;28;20517;-80
2021/09/05 12:07:38;;;;;;;13.73;8.93;;;29.60;95.10;;;;;;4971792;28;20191;-81
2021/09/05 12:10:15;;;;;;;13.45;8.68;;;30.10;92.90;;;;;;4974094;28;20211;-80
2021/09/05 12:12:57;;;;;;;13.15;8.93;;;30.60;91.10;;;;;;4974055;28;20175;-80
2021/09/05 12:15:23;;;;;;;13.25;9.02;;;30.80;90.50;;;;;;4958724;28;20209;-79
2021/09/05 12:17:51;;;;;;;11.93;8.55;;;32.00;90.40;;;;;;4972255;28;20526;-79
2021/09/05 12:20:21;;;;;;;17.13;9.35;;;32.30;84.30;;;;;;4972961;28;20206;-79
2021/09/05 12:22:52;;;;;;;12.85;8.38;;;32.20;81.70;;;;;;4974500;28;20567;-79
2021/09/05 12:25:33;;;;;;;11.57;8.40;;;32.60;82.20;;;;;;4972640;28;20286;-78
2021/09/05 12:28:04;;;;;;;14.10;9.65;;;33.40;78.80;;;;;;4957497;28;20618;-79
2021/09/05 12:30:36;;;;;;;16.02;10.68;;;32.60;81.20;;;;;;4970141;28;20211;-79
2021/09/05 12:33:39;;;;;;;14.98;10.65;;;32.80;83.00;;;;;;4958669;28;20265;-79
2021/09/05 12:36:14;;;;;;;13.50;9.77;;;33.30;82.30;;;;;;4960517;28;20277;-79
2021/09/05 12:38:42;;;;;;;13.40;9.75;;;33.30;80.60;;;;;;4972750;28;20245;-79
2021/09/05 12:41:12;;;;;;;14.63;10.70;;;33.10;84.00;;;;;;4955065;28;20180;-79
2021/09/05 12:43:48;;;;;;;16.80;10.35;;;32.40;81.20;;;;;;4974025;28;20179;-79
2021/09/05 12:46:16;;;;;;;13.77;10.50;;;31.80;82.80;;;;;;4973487;28;20183;-80
2021/09/05 12:48:44;;;;;;;16.05;10.80;;;31.30;83.60;;;;;;4971206;28;20198;-79
2021/09/05 12:51:15;;;;;;;14.85;10.02;;;30.50;86.20;;;;;;4973757;28;20203;-80
2021/09/05 12:54:11;;;;;;;15.90;10.30;;;30.30;87.10;;;;;;4971777;28;20924;-78